Alton, TX

6:24 PM CST on November 24, 2014 (GMT -0600)
North Cummings Ave | Change Station
CLOSE
Current Station
Personal Weather Station
Location: Mission, TX
Elevation: 154 ft
Nearby Weather Stations

Elev 154 ft 26.23 °N, 98.33 °W | Updated 21 seconds ago

Clear
Clear
61.3 °F
Feels Like 61.3 °F
N
4.7
Wind Variable Wind from NNE
Gusts 4.7 mph

Today
High -- | Low -- °F
--% Chance of Precip.
Yesterday
High -- | Low -- °F
Precip. -- in
6:58 AM 5:41 PM
Waxing Crescent, 8% visible
Pressure 30.04 in
Visibility 10.0 miles
Clouds Clear
Dew Point 44 °F
Humidity 52%
Rainfall 0.00 in
Snow Depth Not available.
UV 0 out of 12
Pollen 4.80 out of 12
Air Quality Not available.
Flu Activity Not available.
METAR KMFE 242353Z 02005KT 10SM CLR 18/04 A3004 RMK AO2 SLP170 T01830044 10217 20178 53007

More Conditions Fewer Conditions

Pressure 30.04 in
Visibility 10.0 miles
Clouds Clear
Dew Point 44 °F
Humidity 52%
Rainfall 0.00 in
Snow Depth Not available.
UV 0 out of 12
Pollen 4.80 out of 12
Air Quality Not available.
Flu Activity Not available.
METAR KMFE 242353Z 02005KT 10SM CLR 18/04 A3004 RMK AO2 SLP170 T01830044 10217 20178 53007

More Conditions Fewer Conditions

10-Day Weather Forecast

Almanac

Astronomy

Nov. 24, 2014 Rise Set
Actual Time
Civil Twilight
Nautical Twilight
Astronomical Twilight
Moon
Length of Visible Light
Length of Day
Tomorrow will be .
, % of the Moon is Illuminated

Today's Extremes

State Highs State Lows

Community

WunderPhotos

Upload Photos

1,773,442 photos uploaded!

WunderBlogs® & News

Nearby

Air Quality

  Air Quality AQ Index Pollutant
Not available.

Snow Depth

Station Depth Elevation

Earthquake Activity

City Distance Mag. Time & Date
Minimum magnitude displayed is 2.5.

Coastal Water Temperatures

Place Temperature

Nearby Weather Stations